createdAt,value
2022-12-11T00:00:06.003Z,10.90
2022-12-11T00:01:05.748Z,12.20
2022-12-11T00:02:05.795Z,11.60
2022-12-11T00:03:05.758Z,12.20
2022-12-11T00:04:05.709Z,11.40
2022-12-11T00:05:05.688Z,11.50
2022-12-11T00:06:05.906Z,10.90
2022-12-11T00:07:05.696Z,11.10
2022-12-11T00:08:05.690Z,11.10
2022-12-11T00:09:05.658Z,10.20
2022-12-11T00:10:05.825Z,10.50
2022-12-11T00:11:05.615Z,10.70
2022-12-11T00:12:05.616Z,10.80
2022-12-11T00:13:05.630Z,11.80
2022-12-11T00:14:06.276Z,10.40
2022-12-11T00:15:05.784Z,10.00
2022-12-11T00:16:05.564Z,10.30
2022-12-11T00:17:05.637Z,10.50
2022-12-11T00:18:05.523Z,10.40
2022-12-11T00:19:05.524Z,9.80
2022-12-11T00:20:05.504Z,9.30
2022-12-11T00:21:05.715Z,8.30
2022-12-11T00:22:05.482Z,8.40
2022-12-11T00:23:05.472Z,8.50
2022-12-11T00:24:05.463Z,8.70
2022-12-11T00:25:05.450Z,8.90
2022-12-11T00:26:05.623Z,8.20
2022-12-11T00:27:05.610Z,8.90
2022-12-11T00:28:05.400Z,8.30
2022-12-11T00:29:05.401Z,8.20
2022-12-11T00:30:05.591Z,9.00
2022-12-11T00:31:05.402Z,8.80
2022-12-11T00:32:05.423Z,8.90
2022-12-11T00:33:05.347Z,9.10
2022-12-11T00:34:05.339Z,8.60
2022-12-11T00:35:05.319Z,8.10
2022-12-11T00:36:05.517Z,8.60
2022-12-11T00:37:05.335Z,9.40
2022-12-11T00:38:05.278Z,9.00
2022-12-11T00:39:05.276Z,10.10
2022-12-11T00:40:05.273Z,9.60
2022-12-11T00:41:05.497Z,9.80
2022-12-11T00:42:05.449Z,9.60
2022-12-11T00:43:05.332Z,10.20
2022-12-11T00:44:05.425Z,9.90
2022-12-11T00:45:05.241Z,9.70
2022-12-11T00:46:05.211Z,9.80
2022-12-11T00:47:05.445Z,9.10
2022-12-11T00:48:05.167Z,9.50
2022-12-11T00:49:05.144Z,9.80
2022-12-11T00:50:05.141Z,9.80
2022-12-11T00:51:05.131Z,9.90
2022-12-11T00:52:05.313Z,9.40
2022-12-11T00:53:05.100Z,10.10
2022-12-11T00:54:05.086Z,10.20
2022-12-11T00:55:05.283Z,10.00
2022-12-11T00:56:05.072Z,10.10
2022-12-11T00:57:05.063Z,10.10
2022-12-11T00:58:05.231Z,9.30
2022-12-11T00:59:05.023Z,11.30
2022-12-11T01:00:05.012Z,9.60
2022-12-11T01:01:05.026Z,10.60
2022-12-11T01:02:04.993Z,9.50
2022-12-11T01:03:05.062Z,9.90
2022-12-11T01:04:04.988Z,10.20
2022-12-11T01:05:05.003Z,10.20
2022-12-11T01:06:04.940Z,10.80
2022-12-11T01:07:05.128Z,9.70
2022-12-11T01:08:04.953Z,10.40
2022-12-11T01:09:04.959Z,10.00
2022-12-11T01:10:04.909Z,11.60
2022-12-11T01:11:04.880Z,10.50
2022-12-11T01:12:05.069Z,11.60
2022-12-11T01:13:05.057Z,11.90
2022-12-11T01:14:04.848Z,10.60
2022-12-11T01:15:04.818Z,10.90
2022-12-11T01:16:05.040Z,10.90
2022-12-11T01:17:04.820Z,11.10
2022-12-11T01:18:04.807Z,12.50
2022-12-11T01:19:04.767Z,11.70
2022-12-11T01:20:04.769Z,11.40
2022-12-11T01:21:04.745Z,10.90
2022-12-11T01:22:04.977Z,11.70
2022-12-11T01:23:04.935Z,12.00
2022-12-11T01:24:04.715Z,11.50
2022-12-11T01:25:04.694Z,11.60
2022-12-11T01:26:04.684Z,11.50
2022-12-11T01:27:04.684Z,11.90
2022-12-11T01:28:04.853Z,12.70
2022-12-11T01:29:04.644Z,12.00
2022-12-11T01:30:04.873Z,12.80
2022-12-11T01:31:04.646Z,13.20
2022-12-11T01:32:04.612Z,12.30
2022-12-11T01:33:04.814Z,11.70
2022-12-11T01:34:04.592Z,11.70
2022-12-11T01:35:04.571Z,11.30
2022-12-11T01:36:04.572Z,12.00
2022-12-11T01:37:04.551Z,12.00
2022-12-11T01:38:04.752Z,11.90
2022-12-11T01:39:04.522Z,12.00
2022-12-11T01:40:04.522Z,11.90
2022-12-11T01:41:04.500Z,13.50
2022-12-11T01:42:04.492Z,12.40
2022-12-11T01:43:04.671Z,12.60
2022-12-11T01:44:04.474Z,12.00
2022-12-11T01:45:04.449Z,13.00
2022-12-11T01:46:04.457Z,12.80
2022-12-11T01:47:04.648Z,12.70
2022-12-11T01:48:04.427Z,12.10
2022-12-11T01:49:04.411Z,12.90
2022-12-11T01:50:04.597Z,11.80
2022-12-11T01:51:04.380Z,13.70
2022-12-11T01:52:04.577Z,12.20
2022-12-11T01:53:04.356Z,13.10
2022-12-11T01:54:04.342Z,13.40
2022-12-11T01:55:04.335Z,12.90
2022-12-11T01:56:04.316Z,12.80
2022-12-11T01:57:04.316Z,13.50
2022-12-11T01:58:04.286Z,12.90
2022-12-11T01:59:04.276Z,13.80
2022-12-11T02:00:04.474Z,12.50
2022-12-11T02:01:04.292Z,12.90
2022-12-11T02:02:04.544Z,13.40
2022-12-11T02:03:04.224Z,13.20
2022-12-11T02:04:04.219Z,13.00
2022-12-11T02:05:04.423Z,13.00
2022-12-11T02:06:04.193Z,11.90
2022-12-11T02:07:04.415Z,12.60
2022-12-11T02:08:04.226Z,12.60
2022-12-11T02:09:04.154Z,13.20
2022-12-11T02:10:04.144Z,13.30
2022-12-11T02:11:04.333Z,14.20
2022-12-11T02:12:04.120Z,12.80
2022-12-11T02:13:04.105Z,12.10
2022-12-11T02:14:04.091Z,12.60
2022-12-11T02:15:04.310Z,13.30
2022-12-11T02:16:04.126Z,12.60
2022-12-11T02:17:04.050Z,12.00
2022-12-11T02:18:04.049Z,13.60
2022-12-11T02:19:04.030Z,12.90
2022-12-11T02:20:04.297Z,12.30
2022-12-11T02:21:03.999Z,12.10
2022-12-11T02:22:04.002Z,12.60
2022-12-11T02:23:03.989Z,13.60
2022-12-11T02:24:03.968Z,14.10
2022-12-11T02:25:04.148Z,12.30
2022-12-11T02:26:03.951Z,12.30
2022-12-11T02:27:03.928Z,13.20
2022-12-11T02:28:03.920Z,13.40
2022-12-11T02:29:04.098Z,14.50
2022-12-11T02:30:03.900Z,13.30
2022-12-11T02:31:03.928Z,13.10
2022-12-11T02:32:03.869Z,14.20
2022-12-11T02:33:03.866Z,13.40
2022-12-11T02:34:04.062Z,13.80
2022-12-11T02:35:03.826Z,12.50
2022-12-11T02:36:04.035Z,13.90
2022-12-11T02:37:03.806Z,13.30
2022-12-11T02:38:03.800Z,13.70
2022-12-11T02:39:03.783Z,13.60
2022-12-11T02:40:03.786Z,13.40
2022-12-11T02:41:03.953Z,14.20
2022-12-11T02:42:03.744Z,13.40
2022-12-11T02:43:03.746Z,13.40
2022-12-11T02:44:03.922Z,14.30
2022-12-11T02:45:03.713Z,13.50
2022-12-11T02:46:03.741Z,14.20
2022-12-11T02:47:03.943Z,13.70
2022-12-11T02:48:03.672Z,13.90
2022-12-11T02:49:03.660Z,14.70
2022-12-11T02:50:03.657Z,13.50
2022-12-11T02:51:03.851Z,14.70
2022-12-11T02:52:03.622Z,13.90
2022-12-11T02:53:03.608Z,14.20
2022-12-11T02:54:03.600Z,15.10
2022-12-11T02:55:03.589Z,14.90
2022-12-11T02:56:03.759Z,14.60
2022-12-11T02:57:03.559Z,13.80
2022-12-11T02:58:03.555Z,12.50
2022-12-11T02:59:03.529Z,14.90
2022-12-11T03:00:03.741Z,14.70
2022-12-11T03:01:03.757Z,14.50
2022-12-11T03:02:03.571Z,14.40
2022-12-11T03:03:03.479Z,15.20
2022-12-11T03:04:03.478Z,14.50
2022-12-11T03:05:03.457Z,14.70
2022-12-11T03:06:03.659Z,15.50
2022-12-11T03:07:03.687Z,14.10
2022-12-11T03:08:03.477Z,15.40
2022-12-11T03:09:03.407Z,15.30
2022-12-11T03:10:03.597Z,14.70
2022-12-11T03:11:03.385Z,14.50
2022-12-11T03:12:03.385Z,13.50
2022-12-11T03:13:03.386Z,14.00
2022-12-11T03:14:03.355Z,14.20
2022-12-11T03:15:03.342Z,14.30
2022-12-11T03:16:03.372Z,12.80
2022-12-11T03:17:03.315Z,12.40
2022-12-11T03:18:03.293Z,12.40
2022-12-11T03:19:03.284Z,12.70
2022-12-11T03:20:03.286Z,12.40
2022-12-11T03:21:03.502Z,12.80
2022-12-11T03:22:03.255Z,12.40
2022-12-11T03:23:03.234Z,11.70
2022-12-11T03:24:03.222Z,11.50
2022-12-11T03:25:03.221Z,11.90
2022-12-11T03:26:03.212Z,10.70
2022-12-11T03:27:05.632Z,11.50
2022-12-11T03:28:04.183Z,11.20
2022-12-11T03:29:03.160Z,11.20
2022-12-11T03:30:03.153Z,10.90
2022-12-11T03:31:03.412Z,11.10
2022-12-11T03:32:03.310Z,11.10
2022-12-11T03:33:03.112Z,10.40
2022-12-11T03:34:03.101Z,9.80
2022-12-11T03:35:03.091Z,10.20
2022-12-11T03:36:03.287Z,10.80
2022-12-11T03:37:03.058Z,10.50
2022-12-11T03:38:03.048Z,10.80
2022-12-11T03:39:03.238Z,11.40
2022-12-11T03:40:03.037Z,10.80
2022-12-11T03:41:03.017Z,10.30
2022-12-11T03:42:03.229Z,10.90
2022-12-11T03:43:02.987Z,9.90
2022-12-11T03:44:02.985Z,9.90
2022-12-11T03:45:02.966Z,10.70
2022-12-11T03:46:03.022Z,10.60
2022-12-11T03:47:02.945Z,10.80
2022-12-11T03:48:03.131Z,11.20
2022-12-11T03:49:03.124Z,11.00
2022-12-11T03:50:02.895Z,10.60
2022-12-11T03:51:02.893Z,11.20
2022-12-11T03:52:02.879Z,10.10
2022-12-11T03:53:02.865Z,11.00
2022-12-11T03:54:03.075Z,9.90
2022-12-11T03:55:02.844Z,11.20
2022-12-11T03:56:02.824Z,10.50
2022-12-11T03:57:02.818Z,12.20
2022-12-11T03:58:03.022Z,10.50
2022-12-11T03:59:02.794Z,10.10
2022-12-11T04:00:02.782Z,10.30
2022-12-11T04:01:03.743Z,11.00
2022-12-11T04:02:02.841Z,11.30
2022-12-11T04:03:04.845Z,10.40
2022-12-11T04:04:02.781Z,10.70
2022-12-11T04:05:02.722Z,10.60
2022-12-11T04:06:02.921Z,10.50
2022-12-11T04:07:02.691Z,11.50
2022-12-11T04:08:02.720Z,11.30
2022-12-11T04:09:02.672Z,10.40
2022-12-11T04:10:02.882Z,11.40
2022-12-11T04:11:02.649Z,9.30
2022-12-11T04:12:02.631Z,9.80
2022-12-11T04:13:02.818Z,9.70
2022-12-11T04:14:02.609Z,10.20
2022-12-11T04:15:02.601Z,10.90
2022-12-11T04:16:02.611Z,10.30
2022-12-11T04:17:02.580Z,10.40
2022-12-11T04:18:02.787Z,10.60
2022-12-11T04:19:02.547Z,9.60
2022-12-11T04:20:02.527Z,9.80
2022-12-11T04:21:02.517Z,10.30
2022-12-11T04:22:02.507Z,11.00
2022-12-11T04:23:02.743Z,9.70
2022-12-11T04:24:02.475Z,9.70
2022-12-11T04:25:02.471Z,11.00
2022-12-11T04:26:02.465Z,9.70
2022-12-11T04:27:02.454Z,9.70
2022-12-11T04:28:02.433Z,9.70
2022-12-11T04:29:02.623Z,9.60
2022-12-11T04:30:02.406Z,10.00
2022-12-11T04:31:02.439Z,9.40
2022-12-11T04:32:02.384Z,9.50
2022-12-11T04:33:02.362Z,10.40
2022-12-11T04:34:02.591Z,8.90
2022-12-11T04:35:02.343Z,9.20
2022-12-11T04:36:02.344Z,8.60
2022-12-11T04:37:02.312Z,9.50
2022-12-11T04:38:02.303Z,9.70
2022-12-11T04:39:02.382Z,9.10
2022-12-11T04:40:02.289Z,9.70
2022-12-11T04:41:02.290Z,9.50
2022-12-11T04:42:02.263Z,9.40
2022-12-11T04:43:02.244Z,9.40
2022-12-11T04:44:02.239Z,9.30
2022-12-11T04:45:02.241Z,9.40
2022-12-11T04:46:02.230Z,9.80
2022-12-11T04:47:02.202Z,10.10
2022-12-11T04:48:02.199Z,10.10
2022-12-11T04:49:02.176Z,9.20
2022-12-11T04:50:02.198Z,10.10
2022-12-11T04:51:02.158Z,10.40
2022-12-11T04:52:02.137Z,9.80
2022-12-11T04:53:02.127Z,9.50
2022-12-11T04:54:02.116Z,9.90
2022-12-11T04:55:02.097Z,8.90
2022-12-11T04:56:02.116Z,9.50
2022-12-11T04:57:02.067Z,9.60
2022-12-11T04:58:02.066Z,9.40
2022-12-11T04:59:02.043Z,9.60
2022-12-11T05:00:02.039Z,10.40
2022-12-11T05:01:02.245Z,10.90
2022-12-11T05:02:02.279Z,9.70
2022-12-11T05:03:02.045Z,9.80
2022-12-11T05:04:02.005Z,10.20
2022-12-11T05:05:01.972Z,9.80
2022-12-11T05:06:01.953Z,10.10
2022-12-11T05:07:02.162Z,10.60
2022-12-11T05:08:01.990Z,9.80
2022-12-11T05:09:01.913Z,10.20
2022-12-11T05:10:01.921Z,10.10
2022-12-11T05:11:01.892Z,9.80
2022-12-11T05:12:02.127Z,10.50
2022-12-11T05:13:01.874Z,9.90
2022-12-11T05:14:01.870Z,10.80
2022-12-11T05:15:01.880Z,10.30
2022-12-11T05:16:01.893Z,11.10
2022-12-11T05:17:01.829Z,10.20
2022-12-11T05:18:01.811Z,9.90
2022-12-11T05:19:01.792Z,10.00
2022-12-11T05:20:01.820Z,10.80
2022-12-11T05:21:01.792Z,11.50
2022-12-11T05:22:01.998Z,9.10
2022-12-11T05:23:01.847Z,10.60
2022-12-11T05:24:01.753Z,10.70
2022-12-11T05:25:01.728Z,9.70
2022-12-11T05:26:01.751Z,10.80
2022-12-11T05:27:01.708Z,10.10
2022-12-11T05:28:01.689Z,10.10
2022-12-11T05:29:01.677Z,10.10
2022-12-11T05:30:01.657Z,10.20
2022-12-11T05:31:01.926Z,10.10
2022-12-11T05:32:01.864Z,10.20
2022-12-11T05:33:01.618Z,9.70
2022-12-11T05:34:01.626Z,9.70
2022-12-11T05:35:01.596Z,10.00
2022-12-11T05:36:01.593Z,9.60
2022-12-11T05:37:01.775Z,11.60
2022-12-11T05:38:01.565Z,10.80
2022-12-11T05:39:01.545Z,9.80
2022-12-11T05:40:01.760Z,10.70
2022-12-11T05:41:01.753Z,9.80
2022-12-11T05:42:01.735Z,9.90
2022-12-11T05:43:01.506Z,10.60
2022-12-11T05:44:01.501Z,9.10
2022-12-11T05:45:01.483Z,10.90
2022-12-11T05:46:01.463Z,9.70
2022-12-11T05:47:01.738Z,11.00
2022-12-11T05:48:01.444Z,10.50
2022-12-11T05:49:01.432Z,9.50
2022-12-11T05:50:01.421Z,9.60
2022-12-11T05:51:01.406Z,9.60
2022-12-11T05:52:01.391Z,10.20
2022-12-11T05:53:01.601Z,9.60
2022-12-11T05:54:01.376Z,9.80
2022-12-11T05:55:01.355Z,10.00
2022-12-11T05:56:01.339Z,9.80
2022-12-11T05:57:01.350Z,10.10
2022-12-11T05:58:01.539Z,9.20
2022-12-11T05:59:01.299Z,9.50
2022-12-11T06:00:01.304Z,9.30
2022-12-11T06:01:01.268Z,9.90
2022-12-11T06:02:01.597Z,10.20
2022-12-11T06:03:01.359Z,10.00
2022-12-11T06:04:01.457Z,9.70
2022-12-11T06:05:01.217Z,10.60
2022-12-11T06:06:01.216Z,9.20
2022-12-11T06:07:01.199Z,9.50
2022-12-11T06:08:01.525Z,9.30
2022-12-11T06:09:01.175Z,8.80
2022-12-11T06:10:01.166Z,9.40
2022-12-11T06:11:01.157Z,9.50
2022-12-11T06:12:01.136Z,9.30
2022-12-11T06:13:01.425Z,10.00
2022-12-11T06:14:01.131Z,9.50
2022-12-11T06:15:01.114Z,8.90
2022-12-11T06:16:01.134Z,8.80
2022-12-11T06:17:01.077Z,9.70
2022-12-11T06:18:01.293Z,9.60
2022-12-11T06:19:01.056Z,9.60
2022-12-11T06:20:01.043Z,8.40
2022-12-11T06:21:01.023Z,9.50
2022-12-11T06:22:01.014Z,9.00
2022-12-11T06:23:01.026Z,9.20
2022-12-11T06:24:00.994Z,9.00
2022-12-11T06:25:00.972Z,9.90
2022-12-11T06:26:00.962Z,9.00
2022-12-11T06:27:00.953Z,9.10
2022-12-11T06:28:00.962Z,8.90
2022-12-11T06:29:00.931Z,8.50
2022-12-11T06:30:00.921Z,9.40
2022-12-11T06:31:00.909Z,8.90
2022-12-11T06:32:00.945Z,9.10
2022-12-11T06:33:00.900Z,9.50
2022-12-11T06:34:00.882Z,8.60
2022-12-11T06:35:00.858Z,8.70
2022-12-11T06:36:00.853Z,8.60
2022-12-11T06:37:00.828Z,8.40
2022-12-11T06:38:00.847Z,9.30
2022-12-11T06:39:01.056Z,9.90
2022-12-11T06:40:00.808Z,9.90
2022-12-11T06:41:00.776Z,10.70
2022-12-11T06:42:00.769Z,8.90
2022-12-11T06:43:00.959Z,10.80
2022-12-11T06:44:00.746Z,8.90
2022-12-11T06:45:00.736Z,9.20
2022-12-11T06:46:03.809Z,10.10
2022-12-11T06:47:00.724Z,9.40
2022-12-11T06:48:00.698Z,9.60
2022-12-11T06:49:00.707Z,8.80
2022-12-11T06:50:00.878Z,9.00
2022-12-11T06:51:00.668Z,9.10
2022-12-11T06:52:00.636Z,9.60
2022-12-11T06:53:00.643Z,8.70
2022-12-11T06:54:00.825Z,10.40
2022-12-11T06:55:00.603Z,9.30
2022-12-11T06:56:00.604Z,10.20
2022-12-11T06:57:00.615Z,9.00
2022-12-11T06:58:00.566Z,9.60
2022-12-11T06:59:05.697Z,9.70
2022-12-11T07:00:01.543Z,9.70
2022-12-11T07:01:00.808Z,8.40
2022-12-11T07:02:00.553Z,9.10
2022-12-11T07:03:00.511Z,9.50
2022-12-11T07:04:00.682Z,10.30
2022-12-11T07:05:00.490Z,9.00
2022-12-11T07:06:00.464Z,8.60
2022-12-11T07:07:00.680Z,9.10
2022-12-11T07:08:00.517Z,9.20
2022-12-11T07:09:00.641Z,9.60
2022-12-11T07:10:07.373Z,11.80
2022-12-11T07:11:01.590Z,13.20
2022-12-11T07:12:00.601Z,11.10
2022-12-11T07:13:00.387Z,9.90
2022-12-11T07:14:00.369Z,9.40
2022-12-11T07:15:00.358Z,9.40
2022-12-11T07:16:00.665Z,9.70
2022-12-11T07:17:00.337Z,9.00
2022-12-11T07:18:00.317Z,10.30
2022-12-11T07:19:00.307Z,9.90
2022-12-11T07:20:00.535Z,10.30
2022-12-11T07:21:00.504Z,9.00
2022-12-11T07:22:00.278Z,10.10
2022-12-11T07:23:00.258Z,9.60
2022-12-11T07:24:00.246Z,14.80
2022-12-11T07:25:00.235Z,12.50
2022-12-11T07:26:00.415Z,10.60
2022-12-11T07:27:00.235Z,9.80
2022-12-11T07:28:00.204Z,10.10
2022-12-11T07:29:00.396Z,10.20
2022-12-11T07:30:00.174Z,9.50
2022-12-11T07:31:00.182Z,8.20
2022-12-11T07:32:00.539Z,10.60
2022-12-11T07:33:00.185Z,9.10
2022-12-11T07:34:00.123Z,8.90
2022-12-11T07:35:00.123Z,8.80
2022-12-11T07:36:00.103Z,8.50
2022-12-11T07:37:00.384Z,10.70
2022-12-11T07:38:00.083Z,9.70
2022-12-11T07:39:00.087Z,8.60
2022-12-11T07:40:00.060Z,8.40
2022-12-11T07:41:00.261Z,8.30
2022-12-11T07:42:00.048Z,8.60
2022-12-11T07:43:00.012Z,8.90
2022-12-11T07:43:59.992Z,9.70
2022-12-11T07:44:59.987Z,14.40
2022-12-11T07:46:00.228Z,17.50
2022-12-11T07:46:59.959Z,17.30
2022-12-11T07:47:59.953Z,14.70
2022-12-11T07:48:59.930Z,11.00
2022-12-11T07:49:59.918Z,12.50
2022-12-11T07:51:00.127Z,8.20
2022-12-11T07:51:59.918Z,9.20
2022-12-11T07:52:59.887Z,8.30
2022-12-11T07:53:59.897Z,7.90
2022-12-11T07:54:59.866Z,9.30
2022-12-11T07:55:59.848Z,9.00
2022-12-11T07:56:59.866Z,8.50
2022-12-11T07:57:59.825Z,8.80
2022-12-11T07:58:59.816Z,8.30
2022-12-11T07:59:59.797Z,7.90
2022-12-11T08:01:00.073Z,8.20
2022-12-11T08:01:59.807Z,8.30
2022-12-11T08:02:59.776Z,9.20
2022-12-11T08:03:59.744Z,10.90
2022-12-11T08:04:59.734Z,8.20
2022-12-11T08:05:59.723Z,9.10
2022-12-11T08:06:59.747Z,8.70
2022-12-11T08:07:59.739Z,8.40
2022-12-11T08:08:59.691Z,8.90
2022-12-11T08:09:59.673Z,8.50
2022-12-11T08:10:59.670Z,8.10
2022-12-11T08:11:59.693Z,8.80
2022-12-11T08:12:59.642Z,8.30
2022-12-11T08:13:59.622Z,8.80
2022-12-11T08:14:59.619Z,9.10
2022-12-11T08:15:59.594Z,8.70
2022-12-11T08:16:59.626Z,8.80
2022-12-11T08:17:59.803Z,8.40
2022-12-11T08:18:59.562Z,9.10
2022-12-11T08:19:59.546Z,8.80
2022-12-11T08:20:59.543Z,9.40
2022-12-11T08:21:59.549Z,8.80
2022-12-11T08:22:59.536Z,9.40
2022-12-11T08:23:59.489Z,12.60
2022-12-11T08:24:59.487Z,10.30
2022-12-11T08:25:59.468Z,8.40
2022-12-11T08:26:59.680Z,10.00
2022-12-11T08:27:59.660Z,9.90
2022-12-11T08:28:59.438Z,9.70
2022-12-11T08:29:59.418Z,9.30
2022-12-11T08:30:59.449Z,11.10
2022-12-11T08:31:59.407Z,9.50
2022-12-11T08:32:59.405Z,9.30
2022-12-11T08:33:59.566Z,9.00
2022-12-11T08:34:59.366Z,9.30
2022-12-11T08:35:59.337Z,8.90
2022-12-11T08:36:59.336Z,8.90
2022-12-11T08:37:59.315Z,9.50
2022-12-11T08:38:59.335Z,9.00
2022-12-11T08:39:59.295Z,9.90
2022-12-11T08:40:59.284Z,8.60
2022-12-11T08:41:59.274Z,9.20
2022-12-11T08:42:59.264Z,9.00
2022-12-11T08:43:59.273Z,11.90
2022-12-11T08:44:59.249Z,9.80
2022-12-11T08:45:59.289Z,10.20
2022-12-11T08:46:59.216Z,9.10
2022-12-11T08:47:59.223Z,9.60
2022-12-11T08:48:59.183Z,10.10
2022-12-11T08:49:59.182Z,8.60
2022-12-11T08:50:59.162Z,8.70
2022-12-11T08:51:59.161Z,10.20
2022-12-11T08:52:59.444Z,9.30
2022-12-11T08:53:59.133Z,9.30
2022-12-11T08:54:59.112Z,9.00
2022-12-11T08:55:59.103Z,10.00
2022-12-11T08:56:59.090Z,9.20
2022-12-11T08:57:59.320Z,9.70
2022-12-11T08:58:59.079Z,9.10
2022-12-11T08:59:59.049Z,8.70
2022-12-11T09:00:59.087Z,8.60
2022-12-11T09:01:59.028Z,9.10
2022-12-11T09:02:59.227Z,8.40
2022-12-11T09:03:58.999Z,8.80
2022-12-11T09:04:58.987Z,8.90
2022-12-11T09:05:59.001Z,8.60
2022-12-11T09:06:58.964Z,8.60
2022-12-11T09:07:58.978Z,9.20
2022-12-11T09:08:58.946Z,10.20
2022-12-11T09:09:58.929Z,8.40
2022-12-11T09:10:59.120Z,8.60
2022-12-11T09:11:58.916Z,8.30
2022-12-11T09:12:58.884Z,9.00
2022-12-11T09:14:02.245Z,9.10
2022-12-11T09:14:59.857Z,9.20
2022-12-11T09:15:58.869Z,10.40
2022-12-11T09:16:58.844Z,10.10
2022-12-11T09:17:58.840Z,12.00
2022-12-11T09:18:58.854Z,12.70
2022-12-11T09:19:58.811Z,10.20
2022-12-11T09:20:58.785Z,10.50
2022-12-11T09:21:58.806Z,11.40
2022-12-11T09:22:58.771Z,9.80
2022-12-11T09:23:59.257Z,9.30
2022-12-11T09:24:58.743Z,8.60
2022-12-11T09:25:58.798Z,9.90
2022-12-11T09:26:58.724Z,9.00
2022-12-11T09:27:58.702Z,8.40
2022-12-11T09:28:58.714Z,8.70
2022-12-11T09:29:58.681Z,8.60
2022-12-11T09:30:58.733Z,9.10
2022-12-11T09:31:58.681Z,9.50
2022-12-11T09:32:58.640Z,10.20
2022-12-11T09:33:58.621Z,9.90
2022-12-11T09:34:58.611Z,10.10
2022-12-11T09:35:58.693Z,9.00
2022-12-11T09:36:58.825Z,9.30
2022-12-11T09:37:58.588Z,9.10
2022-12-11T09:38:58.580Z,9.30
2022-12-11T09:40:02.614Z,9.40
2022-12-11T09:40:59.528Z,9.30
2022-12-11T09:41:58.548Z,8.80
2022-12-11T09:42:58.717Z,9.10
2022-12-11T09:43:58.507Z,9.80
2022-12-11T09:44:58.554Z,11.00
2022-12-11T09:45:58.616Z,9.20
2022-12-11T09:46:58.525Z,8.90
2022-12-11T09:47:58.456Z,9.60
2022-12-11T09:48:58.435Z,9.80
2022-12-11T09:49:58.455Z,9.30
2022-12-11T09:50:58.413Z,11.90
2022-12-11T09:51:58.400Z,13.30
2022-12-11T09:52:58.608Z,10.50
2022-12-11T09:53:58.366Z,9.40
2022-12-11T09:54:58.422Z,8.10
2022-12-11T09:55:58.376Z,9.60
2022-12-11T09:56:58.344Z,9.00
2022-12-11T09:57:58.333Z,8.90
2022-12-11T09:58:58.554Z,7.90
2022-12-11T10:00:04.247Z,8.50
2022-12-11T10:00:59.292Z,8.90
2022-12-11T10:01:58.283Z,8.00
2022-12-11T10:02:58.328Z,7.40
2022-12-11T10:03:58.273Z,7.90
2022-12-11T10:04:58.241Z,8.90
2022-12-11T10:06:04.056Z,10.20
2022-12-11T10:06:59.210Z,9.00
2022-12-11T10:07:58.289Z,9.20
2022-12-11T10:08:58.233Z,9.60
2022-12-11T10:09:58.179Z,10.50
2022-12-11T10:10:58.161Z,10.00
2022-12-11T10:11:58.149Z,9.90
2022-12-11T10:12:58.339Z,9.50
2022-12-11T10:13:58.129Z,9.90
2022-12-11T10:14:58.162Z,9.90
2022-12-11T10:15:58.261Z,10.60
2022-12-11T10:16:58.138Z,10.00
2022-12-11T10:18:04.485Z,10.00
2022-12-11T10:18:59.077Z,8.90
2022-12-11T10:19:58.069Z,10.80
2022-12-11T10:20:58.045Z,10.00
2022-12-11T10:21:58.028Z,9.50
2022-12-11T10:22:58.019Z,10.00
2022-12-11T10:23:58.027Z,9.10
2022-12-11T10:25:10.835Z,10.90
2022-12-11T10:25:58.976Z,8.20
2022-12-11T10:26:57.965Z,8.90
2022-12-11T10:27:57.966Z,9.90
2022-12-11T10:28:57.975Z,9.80
2022-12-11T10:29:57.925Z,9.60
2022-12-11T10:30:57.951Z,10.40
2022-12-11T10:31:57.908Z,9.40
2022-12-11T10:32:57.899Z,9.90
2022-12-11T10:33:58.127Z,8.90
2022-12-11T10:34:57.875Z,8.50
2022-12-11T10:35:58.188Z,9.00
2022-12-11T10:37:00.573Z,9.10
2022-12-11T10:37:57.853Z,8.80
2022-12-11T10:38:57.854Z,9.20
2022-12-11T10:39:57.801Z,10.10
2022-12-11T10:40:57.806Z,9.20
2022-12-11T10:41:57.782Z,9.30
2022-12-11T10:42:57.779Z,9.70
2022-12-11T10:43:57.771Z,9.50
2022-12-11T10:44:57.744Z,11.30
2022-12-11T10:45:57.838Z,10.00
2022-12-11T10:46:57.724Z,9.50
2022-12-11T10:47:57.711Z,9.50
2022-12-11T10:48:57.721Z,9.50
2022-12-11T10:49:57.678Z,9.90
2022-12-11T10:50:57.667Z,9.20
2022-12-11T10:51:57.860Z,8.80
2022-12-11T10:52:57.660Z,10.20
2022-12-11T10:54:00.309Z,9.20
2022-12-11T10:54:58.828Z,10.80
2022-12-11T10:55:57.619Z,11.80
2022-12-11T10:56:57.641Z,10.60
2022-12-11T10:57:57.577Z,13.00
2022-12-11T10:58:57.568Z,10.80
2022-12-11T10:59:57.766Z,11.90
2022-12-11T11:00:57.574Z,11.20
2022-12-11T11:01:57.579Z,10.60
2022-12-11T11:02:57.630Z,12.20
2022-12-11T11:03:57.526Z,15.20
2022-12-11T11:04:57.536Z,15.20
2022-12-11T11:05:57.544Z,12.90
2022-12-11T11:06:57.556Z,10.80
2022-12-11T11:07:57.574Z,12.00
2022-12-11T11:08:57.524Z,12.20
2022-12-11T11:09:57.755Z,11.70
2022-12-11T11:10:57.426Z,13.20
2022-12-11T11:11:57.409Z,13.70
2022-12-11T11:12:57.404Z,11.70
2022-12-11T11:13:57.403Z,15.00
2022-12-11T11:14:57.372Z,14.30
2022-12-11T11:15:57.572Z,12.90
2022-12-11T11:16:57.402Z,20.40
2022-12-11T11:17:57.331Z,12.10
2022-12-11T11:18:57.320Z,11.40
2022-12-11T11:19:57.312Z,18.70
2022-12-11T11:20:57.326Z,13.90
2022-12-11T11:21:57.470Z,12.80
2022-12-11T11:22:57.326Z,15.30
2022-12-11T11:23:57.370Z,11.30
2022-12-11T11:24:57.370Z,10.10
2022-12-11T11:25:57.241Z,10.00
2022-12-11T11:27:12.724Z,25.60
2022-12-11T11:27:58.211Z,22.10
2022-12-11T11:28:57.236Z,13.10
2022-12-11T11:29:57.177Z,11.50
2022-12-11T11:30:57.238Z,9.80
2022-12-11T11:31:57.157Z,9.40
2022-12-11T11:32:57.370Z,11.70
2022-12-11T11:33:57.128Z,9.10
2022-12-11T11:34:57.128Z,8.20
2022-12-11T11:35:57.100Z,9.50
2022-12-11T11:36:57.098Z,9.70
2022-12-11T11:37:57.296Z,8.30
2022-12-11T11:38:57.066Z,7.80
2022-12-11T11:39:57.056Z,8.10
2022-12-11T11:41:02.463Z,8.80
2022-12-11T11:41:58.257Z,8.10
2022-12-11T11:42:57.026Z,9.00
2022-12-11T11:43:57.006Z,8.50
2022-12-11T11:44:56.994Z,9.60
2022-12-11T11:45:56.974Z,9.60
2022-12-11T11:46:57.041Z,9.20
2022-12-11T11:47:56.954Z,9.90
2022-12-11T11:48:56.944Z,10.80
2022-12-11T11:49:56.944Z,10.60
2022-12-11T11:50:57.293Z,9.80
2022-12-11T11:51:56.906Z,9.50
2022-12-11T11:52:56.933Z,10.00
2022-12-11T11:53:57.626Z,10.50
2022-12-11T11:54:56.891Z,12.30
2022-12-11T11:55:57.081Z,11.40
2022-12-11T11:56:56.842Z,10.10
2022-12-11T11:57:56.837Z,10.70
2022-12-11T11:58:56.850Z,10.80
2022-12-11T11:59:56.809Z,10.20
2022-12-11T12:00:56.801Z,11.00
2022-12-11T12:01:56.815Z,10.60
2022-12-11T12:02:56.870Z,11.30
2022-12-11T12:03:56.800Z,10.50
2022-12-11T12:04:56.748Z,10.20
2022-12-11T12:05:56.739Z,10.10
2022-12-11T12:06:56.728Z,10.30
2022-12-11T12:07:56.736Z,11.30
2022-12-11T12:08:56.911Z,10.40
2022-12-11T12:09:56.731Z,10.80
2022-12-11T12:10:56.667Z,9.90
2022-12-11T12:11:56.876Z,10.70
2022-12-11T12:12:56.656Z,12.00
2022-12-11T12:13:56.638Z,11.10
2022-12-11T12:14:56.656Z,10.20
2022-12-11T12:15:56.729Z,10.80
2022-12-11T12:16:56.644Z,10.30
2022-12-11T12:17:56.632Z,10.80
2022-12-11T12:18:56.576Z,11.80
2022-12-11T12:19:56.790Z,9.90
2022-12-11T12:20:56.543Z,10.40
2022-12-11T12:21:56.535Z,10.50
2022-12-11T12:22:56.535Z,11.20
2022-12-11T12:23:56.514Z,12.90
2022-12-11T12:24:56.526Z,10.90
2022-12-11T12:25:56.673Z,11.50
2022-12-11T12:26:56.473Z,10.20
2022-12-11T12:27:56.453Z,9.60
2022-12-11T12:28:56.455Z,9.40
2022-12-11T12:29:56.461Z,8.90
2022-12-11T12:30:56.482Z,9.90
2022-12-11T12:31:56.522Z,9.50
2022-12-11T12:32:56.401Z,11.20
2022-12-11T12:33:56.390Z,8.70
2022-12-11T12:34:56.390Z,10.10
2022-12-11T12:35:56.358Z,9.50
2022-12-11T12:36:56.381Z,9.20
2022-12-11T12:37:56.337Z,10.00
2022-12-11T12:38:56.326Z,10.00
2022-12-11T12:39:56.322Z,9.70
2022-12-11T12:40:56.299Z,10.40
2022-12-11T12:41:56.527Z,10.20
2022-12-11T12:42:56.285Z,10.50
2022-12-11T12:43:56.307Z,9.50
2022-12-11T12:44:56.256Z,8.80
2022-12-11T12:45:56.299Z,12.30
2022-12-11T12:46:56.508Z,10.60
2022-12-11T12:47:56.217Z,9.60
2022-12-11T12:48:56.209Z,9.00
2022-12-11T12:49:56.186Z,9.30
2022-12-11T12:50:56.177Z,9.40
2022-12-11T12:51:56.166Z,8.90
2022-12-11T12:52:56.175Z,9.20
2022-12-11T12:53:56.138Z,9.60
2022-12-11T12:54:56.114Z,8.40
2022-12-11T12:55:56.115Z,9.00
2022-12-11T12:56:56.305Z,9.20
2022-12-11T12:57:56.084Z,9.80
2022-12-11T12:58:56.104Z,8.60
2022-12-11T12:59:56.064Z,9.10
2022-12-11T13:00:56.091Z,8.60
2022-12-11T13:01:56.057Z,8.30
2022-12-11T13:02:56.034Z,9.20
2022-12-11T13:03:56.257Z,8.90